Time;durP1;ratioP1;P1;durP2;ratioP2;P2;SDS_P1;SDS_P2;PMS_P1;PMS_P2;Temp;Humidity;BMP_temperature;BMP_pressure;BME280_temperature;BME280_humidity;BME280_pressure;Samples;Min_cycle;Max_cycle;Signal;HPM_P1;HPM_P2
2022/05/29 00:01:29;;;;;;;7.20;3.03;;;;;;;;;;4975956;28;20203;-51
2022/05/29 00:03:55;;;;;;;4.53;2.53;;;;;;;;;;4975882;28;20202;-51
2022/05/29 00:06:21;;;;;;;8.73;3.13;;;;;;;;;;4976019;28;20728;-51
2022/05/29 00:08:47;;;;;;;7.53;3.30;;;;;;;;;;4976145;28;20677;-51
2022/05/29 00:11:15;;;;;;;5.00;2.50;;;;;;;;;;4976128;28;20203;-52
2022/05/29 00:13:41;;;;;;;5.27;2.77;;;;;;;;;;4975891;28;20218;-50
2022/05/29 00:16:07;;;;;;;4.93;2.30;;;;;;;;;;4975859;28;20194;-51
2022/05/29 00:18:36;;;;;;;6.30;2.80;;;;;;;;;;4975822;28;20257;-50
2022/05/29 00:21:02;;;;;;;5.87;2.77;;;;;;;;;;4976019;28;20294;-50
2022/05/29 00:23:29;;;;;;;5.87;2.77;;;;;;;;;;4975653;28;20575;-52
2022/05/29 00:25:55;;;;;;;5.03;2.60;;;;;;;;;;4975698;28;20235;-52
2022/05/29 00:28:21;;;;;;;4.60;2.77;;;;;;;;;;4975554;28;20243;-51
2022/05/29 00:30:47;;;;;;;6.87;2.93;;;;;;;;;;4975530;28;20203;-50
2022/05/29 00:33:13;;;;;;;6.33;3.30;;;;;;;;;;4975572;28;20199;-51
2022/05/29 00:35:42;;;;;;;9.53;3.27;;;;;;;;;;4975456;28;20801;-50
2022/05/29 00:38:09;;;;;;;5.90;2.70;;;;;;;;;;4975744;28;20262;-50
2022/05/29 00:40:39;;;;;;;6.70;2.70;;;;;;;;;;4975081;28;20199;-50
2022/05/29 00:43:05;;;;;;;9.70;2.93;;;;;;;;;;4975412;28;20207;-50
2022/05/29 00:45:33;;;;;;;8.47;3.20;;;;;;;;;;4975639;28;20195;-49
2022/05/29 00:48:03;;;;;;;9.63;2.97;;;;;;;;;;4975288;28;20273;-51
2022/05/29 00:50:29;;;;;;;8.80;3.27;;;;;;;;;;4975362;28;20207;-50
2022/05/29 00:52:56;;;;;;;6.77;3.47;;;;;;;;;;4975380;28;20290;-51
2022/05/29 00:55:24;;;;;;;9.50;3.30;;;;;;;;;;4975142;28;20649;-51
2022/05/29 00:57:53;;;;;;;8.27;3.63;;;;;;;;;;4974820;28;20292;-51
2022/05/29 01:00:22;;;;;;;7.80;3.27;;;;;;;;;;4975127;28;20211;-52
2022/05/29 01:02:48;;;;;;;7.53;3.17;;;;;;;;;;4974878;28;20203;-51
2022/05/29 01:05:16;;;;;;;6.87;3.03;;;;;;;;;;4975178;28;20603;-51
2022/05/29 01:07:43;;;;;;;6.10;3.17;;;;;;;;;;4974847;28;20262;-52
2022/05/29 01:10:11;;;;;;;8.70;4.13;;;;;;;;;;4974912;28;20230;-51
2022/05/29 01:12:40;;;;;;;6.80;3.37;;;;;;;;;;4974925;28;20246;-50
2022/05/29 01:15:10;;;;;;;5.57;2.80;;;;;;;;;;4974811;28;20212;-51
2022/05/29 01:17:42;;;;;;;6.13;2.90;;;;;;;;;;4974763;28;20199;-51
2022/05/29 01:20:26;;;;;;;10.00;3.57;;;;;;;;;;4974698;28;20203;-50
2022/05/29 01:23:08;;;;;;;7.30;3.23;;;;;;;;;;4961539;28;20199;-51
2022/05/29 01:25:55;;;;;;;7.07;3.37;;;;;;;;;;4974542;28;20227;-50
2022/05/29 01:28:35;;;;;;;7.97;3.50;;;;;;;;;;4968078;28;20287;-50
2022/05/29 01:31:04;;;;;;;7.23;3.47;;;;;;;;;;4958304;28;20211;-50
2022/05/29 01:33:35;;;;;;;6.43;3.10;;;;;;;;;;4974608;28;20214;-50
2022/05/29 01:36:04;;;;;;;8.07;3.30;;;;;;;;;;4974498;28;20209;-51
2022/05/29 01:38:30;;;;;;;8.40;3.77;;;;;;;;;;4974506;28;20211;-51
2022/05/29 01:40:58;;;;;;;9.43;4.13;;;;;;;;;;4974176;28;20214;-51
2022/05/29 01:43:28;;;;;;;12.80;3.63;;;;;;;;;;4974317;28;20285;-50
2022/05/29 01:45:57;;;;;;;10.07;3.97;;;;;;;;;;4973969;28;20266;-51
2022/05/29 01:48:31;;;;;;;7.23;3.80;;;;;;;;;;4973799;28;20203;-51
2022/05/29 01:50:59;;;;;;;12.10;3.87;;;;;;;;;;4974056;28;20210;-51
2022/05/29 01:53:28;;;;;;;12.87;4.27;;;;;;;;;;4973999;28;20597;-51
2022/05/29 01:55:55;;;;;;;8.93;4.07;;;;;;;;;;4973890;28;20719;-51
2022/05/29 01:58:24;;;;;;;6.80;3.57;;;;;;;;;;4974011;28;20199;-49
2022/05/29 02:00:52;;;;;;;10.73;4.00;;;;;;;;;;4973676;28;20649;-50
2022/05/29 02:03:20;;;;;;;8.63;4.30;;;;;;;;;;4973932;28;20265;-49
2022/05/29 02:05:51;;;;;;;12.57;4.27;;;;;;;;;;4973753;28;20202;-50
2022/05/29 02:08:18;;;;;;;10.40;4.10;;;;;;;;;;4974015;28;20582;-51
2022/05/29 02:10:46;;;;;;;9.70;4.10;;;;;;;;;;4973852;28;20649;-51
2022/05/29 02:13:16;;;;;;;9.50;3.80;;;;;;;;;;4973822;28;20298;-51
2022/05/29 02:15:45;;;;;;;8.10;4.00;;;;;;;;;;4973274;28;20241;-51
2022/05/29 02:18:14;;;;;;;11.17;4.13;;;;;;;;;;4973722;28;20207;-51
2022/05/29 02:20:42;;;;;;;11.97;4.00;;;;;;;;;;4973519;28;20574;-49
2022/05/29 02:23:11;;;;;;;11.93;3.73;;;;;;;;;;4973542;28;20249;-52
2022/05/29 02:25:38;;;;;;;9.50;4.07;;;;;;;;;;4973366;28;20223;-51
2022/05/29 02:28:06;;;;;;;10.03;3.63;;;;;;;;;;4973233;28;20242;-52
2022/05/29 02:30:41;;;;;;;7.20;3.77;;;;;;;;;;4973540;28;20226;-52
2022/05/29 02:33:11;;;;;;;8.47;3.93;;;;;;;;;;4973295;28;20277;-50
2022/05/29 02:35:41;;;;;;;7.63;3.63;;;;;;;;;;4973374;28;20249;-50
2022/05/29 02:38:08;;;;;;;9.57;4.30;;;;;;;;;;4973154;28;20191;-51
2022/05/29 02:40:39;;;;;;;11.53;3.77;;;;;;;;;;4973305;28;20661;-51
2022/05/29 02:43:11;;;;;;;9.97;4.07;;;;;;;;;;4973110;28;20206;-51
2022/05/29 02:45:43;;;;;;;8.97;4.60;;;;;;;;;;4973138;28;20210;-50
2022/05/29 02:48:12;;;;;;;8.10;3.70;;;;;;;;;;4973268;28;20442;-52
2022/05/29 02:50:41;;;;;;;8.33;4.20;;;;;;;;;;4973192;28;20245;-51
2022/05/29 02:53:08;;;;;;;6.83;3.27;;;;;;;;;;4972992;28;20207;-51
2022/05/29 02:55:35;;;;;;;7.10;4.03;;;;;;;;;;4972990;28;20270;-51
2022/05/29 02:58:04;;;;;;;11.00;4.10;;;;;;;;;;4972775;28;20283;-51
2022/05/29 03:00:32;;;;;;;10.77;3.93;;;;;;;;;;4972885;28;20206;-51
2022/05/29 03:03:06;;;;;;;9.10;3.93;;;;;;;;;;4972562;28;20203;-51
2022/05/29 03:05:35;;;;;;;8.20;4.33;;;;;;;;;;4972987;28;20700;-50
2022/05/29 03:08:10;;;;;;;7.73;4.03;;;;;;;;;;4972713;28;20254;-50
2022/05/29 03:10:37;;;;;;;12.33;4.00;;;;;;;;;;4972695;28;20260;-51
2022/05/29 03:13:08;;;;;;;7.60;3.93;;;;;;;;;;4972644;28;20242;-51
2022/05/29 03:15:38;;;;;;;10.87;4.13;;;;;;;;;;4972754;28;20282;-51
2022/05/29 03:18:09;;;;;;;11.80;4.70;;;;;;;;;;4972785;28;20255;-49
2022/05/29 03:20:40;;;;;;;10.07;4.17;;;;;;;;;;4972823;28;20266;-50
2022/05/29 03:23:09;;;;;;;9.40;3.60;;;;;;;;;;4972656;28;20227;-50
2022/05/29 03:25:37;;;;;;;10.20;3.70;;;;;;;;;;4972653;28;20222;-50
2022/05/29 03:28:04;;;;;;;9.53;3.87;;;;;;;;;;4975218;28;20331;-50
2022/05/29 03:30:33;;;;;;;9.77;4.13;;;;;;;;;;4976725;28;20675;-50
2022/05/29 03:33:01;;;;;;;9.23;3.80;;;;;;;;;;4976675;28;20209;-51
2022/05/29 03:35:29;;;;;;;11.23;4.33;;;;;;;;;;4976687;28;20194;-50
2022/05/29 03:37:55;;;;;;;10.90;3.60;;;;;;;;;;4976568;28;20199;-50
2022/05/29 03:40:21;;;;;;;11.53;3.97;;;;;;;;;;4976601;28;20195;-52
2022/05/29 03:42:47;;;;;;;10.17;4.03;;;;;;;;;;4976584;28;20285;-50
2022/05/29 03:45:14;;;;;;;8.73;3.97;;;;;;;;;;4976293;28;20210;-51
2022/05/29 03:47:41;;;;;;;12.10;3.67;;;;;;;;;;4976550;28;20613;-50
2022/05/29 03:50:09;;;;;;;7.90;4.00;;;;;;;;;;4976323;28;20261;-51
2022/05/29 03:52:35;;;;;;;8.57;3.67;;;;;;;;;;4976469;28;20226;-50
2022/05/29 03:55:01;;;;;;;10.07;3.20;;;;;;;;;;4976288;28;20575;-50
2022/05/29 03:57:27;;;;;;;11.43;4.23;;;;;;;;;;4976272;28;20195;-49
2022/05/29 03:59:53;;;;;;;10.37;3.70;;;;;;;;;;4975962;28;20293;-50
2022/05/29 04:02:19;;;;;;;10.00;3.77;;;;;;;;;;4976207;28;20286;-50
2022/05/29 04:04:47;;;;;;;10.73;3.90;;;;;;;;;;4976185;28;20277;-51
2022/05/29 04:07:13;;;;;;;8.57;3.47;;;;;;;;;;4975895;28;20226;-52
2022/05/29 04:12:23;;;;;;;9.80;4.13;;;;;;;;;;4975985;28;20685;-50
2022/05/29 04:14:49;;;;;;;9.07;4.07;;;;;;;;;;4975808;28;20195;-50
2022/05/29 04:17:16;;;;;;;8.23;3.63;;;;;;;;;;4975995;28;20191;-50
2022/05/29 04:19:44;;;;;;;8.43;3.53;;;;;;;;;;4975630;28;20199;-52
2022/05/29 04:22:13;;;;;;;11.07;4.10;;;;;;;;;;4975712;28;20619;-50
2022/05/29 04:24:39;;;;;;;9.40;3.83;;;;;;;;;;4975945;28;20203;-51
2022/05/29 04:27:08;;;;;;;10.80;3.87;;;;;;;;;;4975353;28;20313;-50
2022/05/29 04:29:34;;;;;;;7.87;3.67;;;;;;;;;;4975603;28;20199;-51
2022/05/29 04:34:45;;;;;;;9.23;3.80;;;;;;;;;;4975784;28;20283;-51
2022/05/29 04:37:12;;;;;;;12.47;4.13;;;;;;;;;;4975206;28;20289;-50
2022/05/29 04:39:38;;;;;;;10.07;3.83;;;;;;;;;;4975363;28;20206;-50
2022/05/29 04:42:05;;;;;;;13.93;4.00;;;;;;;;;;4975420;28;20573;-50
2022/05/29 04:44:31;;;;;;;9.30;3.80;;;;;;;;;;4975443;28;20203;-50
2022/05/29 04:46:58;;;;;;;10.10;3.63;;;;;;;;;;4975153;28;20226;-51
2022/05/29 04:49:24;;;;;;;7.43;3.77;;;;;;;;;;4975387;28;20207;-49
2022/05/29 04:51:50;;;;;;;9.87;3.83;;;;;;;;;;4975189;28;20211;-50
2022/05/29 04:54:17;;;;;;;8.87;3.50;;;;;;;;;;4975196;28;20231;-50
2022/05/29 04:56:46;;;;;;;9.10;3.97;;;;;;;;;;4975145;28;20214;-50
2022/05/29 04:59:12;;;;;;;11.23;4.03;;;;;;;;;;4974819;28;20736;-51
2022/05/29 05:01:38;;;;;;;8.93;3.50;;;;;;;;;;4975143;28;20502;-51
2022/05/29 05:04:05;;;;;;;9.40;4.07;;;;;;;;;;4975045;28;20285;-51
2022/05/29 05:06:31;;;;;;;10.30;3.93;;;;;;;;;;4975057;28;20681;-51
2022/05/29 05:08:57;;;;;;;7.57;3.63;;;;;;;;;;4974768;28;20207;-51
2022/05/29 05:11:24;;;;;;;11.63;4.57;;;;;;;;;;4975014;28;20282;-50
2022/05/29 05:13:50;;;;;;;10.13;4.10;;;;;;;;;;4974715;28;20697;-50
2022/05/29 05:16:16;;;;;;;8.60;4.10;;;;;;;;;;4974826;28;20202;-50
2022/05/29 05:18:42;;;;;;;8.80;3.93;;;;;;;;;;4974760;28;20207;-50
2022/05/29 05:21:09;;;;;;;9.17;3.93;;;;;;;;;;4974645;28;20269;-51
2022/05/29 05:23:35;;;;;;;12.13;4.43;;;;;;;;;;4974588;28;20580;-50
2022/05/29 05:26:02;;;;;;;13.43;4.53;;;;;;;;;;4974349;28;20219;-51
2022/05/29 05:28:29;;;;;;;10.47;3.53;;;;;;;;;;4974484;28;20231;-50
2022/05/29 05:30:55;;;;;;;9.30;4.03;;;;;;;;;;4974479;28;20227;-48
2022/05/29 05:33:21;;;;;;;12.40;3.93;;;;;;;;;;4974412;28;20289;-51
2022/05/29 05:35:47;;;;;;;8.13;3.87;;;;;;;;;;4974464;28;20245;-50
2022/05/29 05:38:13;;;;;;;9.03;3.87;;;;;;;;;;4974139;28;20677;-50
2022/05/29 05:40:39;;;;;;;9.63;4.63;;;;;;;;;;4974396;28;20202;-50
2022/05/29 05:43:05;;;;;;;6.13;3.57;;;;;;;;;;4974219;28;20297;-51
2022/05/29 05:45:33;;;;;;;9.37;3.93;;;;;;;;;;4974381;28;20657;-49
2022/05/29 05:47:59;;;;;;;11.00;3.93;;;;;;;;;;4974364;28;20246;-50
2022/05/29 05:50:25;;;;;;;10.63;4.07;;;;;;;;;;4973275;28;20927;-50
2022/05/29 05:52:51;;;;;;;8.20;3.63;;;;;;;;;;4973997;28;20210;-50
2022/05/29 05:55:17;;;;;;;6.90;3.37;;;;;;;;;;4973526;28;20227;-50
2022/05/29 05:57:43;;;;;;;8.27;3.20;;;;;;;;;;4974075;28;20179;-50
2022/05/29 06:00:10;;;;;;;11.67;3.67;;;;;;;;;;4973536;28;20772;-51
2022/05/29 06:02:39;;;;;;;10.50;4.10;;;;;;;;;;4973688;28;20566;-49
2022/05/29 06:05:06;;;;;;;11.67;3.47;;;;;;;;;;4973390;28;20211;-49
2022/05/29 06:07:31;;;;;;;8.10;3.20;;;;;;;;;;4973553;28;20231;-50
2022/05/29 06:09:57;;;;;;;8.87;3.53;;;;;;;;;;4973670;28;20201;-50
2022/05/29 06:12:23;;;;;;;8.97;3.60;;;;;;;;;;4973430;28;20720;-50
2022/05/29 06:14:50;;;;;;;7.37;2.87;;;;;;;;;;4973241;28;20297;-50
2022/05/29 06:17:16;;;;;;;6.40;3.37;;;;;;;;;;4973849;28;20199;-50
2022/05/29 06:19:43;;;;;;;8.37;3.30;;;;;;;;;;4973352;28;20226;-51
2022/05/29 06:22:09;;;;;;;4.70;2.83;;;;;;;;;;4973236;28;20235;-50
2022/05/29 06:24:36;;;;;;;5.23;2.83;;;;;;;;;;4973066;28;20257;-50
2022/05/29 06:27:02;;;;;;;8.80;3.17;;;;;;;;;;4972808;28;20244;-49
2022/05/29 06:29:28;;;;;;;6.83;2.80;;;;;;;;;;4973346;28;20206;-51
2022/05/29 06:31:59;;;;;;;6.00;3.10;;;;;;;;;;4973436;28;20238;-51
2022/05/29 06:34:25;;;;;;;7.00;3.37;;;;;;;;;;4973531;28;20215;-50
2022/05/29 06:36:52;;;;;;;6.40;2.73;;;;;;;;;;4973339;28;20199;-50
2022/05/29 06:39:21;;;;;;;10.27;3.00;;;;;;;;;;4973328;28;20209;-51
2022/05/29 06:41:47;;;;;;;7.60;3.80;;;;;;;;;;4973458;28;20334;-51
2022/05/29 06:44:13;;;;;;;3.77;2.30;;;;;;;;;;4972846;28;20250;-51
2022/05/29 06:46:39;;;;;;;6.90;2.80;;;;;;;;;;4972888;28;20787;-51
2022/05/29 06:49:05;;;;;;;6.50;3.20;;;;;;;;;;4973124;28;20230;-51
2022/05/29 06:51:31;;;;;;;9.30;3.20;;;;;;;;;;4973378;28;20235;-51
2022/05/29 06:54:00;;;;;;;5.23;2.80;;;;;;;;;;4973133;28;20242;-51
2022/05/29 06:56:26;;;;;;;6.70;2.80;;;;;;;;;;4973134;28;20207;-51
2022/05/29 06:58:55;;;;;;;7.67;2.70;;;;;;;;;;4972985;28;20569;-51
2022/05/29 07:07:01;;;;;;;7.53;3.13;;;;;;;;;;4972875;28;20242;-49
2022/05/29 07:09:30;;;;;;;8.50;3.60;;;;;;;;;;4973140;28;20210;-52
2022/05/29 07:11:59;;;;;;;7.57;2.80;;;;;;;;;;4972932;28;20243;-53
2022/05/29 07:14:25;;;;;;;8.60;2.87;;;;;;;;;;4972648;28;20199;-51
2022/05/29 07:16:51;;;;;;;7.80;2.73;;;;;;;;;;4972886;28;20210;-52
2022/05/29 07:19:22;;;;;;;9.10;3.10;;;;;;;;;;4972852;28;20198;-51
2022/05/29 07:21:48;;;;;;;7.20;3.30;;;;;;;;;;4969036;28;20214;-52
2022/05/29 07:24:15;;;;;;;8.70;3.20;;;;;;;;;;4970698;28;20615;-50
2022/05/29 07:26:42;;;;;;;7.87;3.53;;;;;;;;;;4972901;28;20239;-51
2022/05/29 07:29:11;;;;;;;6.57;3.53;;;;;;;;;;4972337;28;20242;-52
2022/05/29 07:31:37;;;;;;;6.10;3.27;;;;;;;;;;4972954;28;20257;-52
2022/05/29 07:34:03;;;;;;;6.27;2.77;;;;;;;;;;4970959;28;20203;-52
2022/05/29 07:36:29;;;;;;;7.03;2.60;;;;;;;;;;4972868;28;20234;-51
2022/05/29 07:38:55;;;;;;;6.37;2.80;;;;;;;;;;4972450;28;20286;-50
2022/05/29 07:44:07;;;;;;;7.73;3.03;;;;;;;;;;4972378;28;20323;-51
2022/05/29 07:46:33;;;;;;;6.70;3.07;;;;;;;;;;4972438;28;20234;-51
2022/05/29 07:48:59;;;;;;;7.57;3.00;;;;;;;;;;4972485;28;20195;-52
2022/05/29 07:51:25;;;;;;;10.70;3.07;;;;;;;;;;4972274;28;20225;-51
2022/05/29 07:53:51;;;;;;;6.03;2.50;;;;;;;;;;4972377;28;20202;-51
2022/05/29 07:56:19;;;;;;;5.60;2.80;;;;;;;;;;4972357;28;20203;-51
2022/05/29 07:58:45;;;;;;;10.87;2.93;;;;;;;;;;4972400;28;20270;-52
2022/05/29 08:01:13;;;;;;;6.53;2.80;;;;;;;;;;4972238;28;20203;-52
2022/05/29 08:03:39;;;;;;;5.10;2.20;;;;;;;;;;4972293;28;20705;-52
2022/05/29 08:06:05;;;;;;;6.50;3.23;;;;;;;;;;4972094;28;20206;-51
2022/05/29 08:08:32;;;;;;;7.10;2.50;;;;;;;;;;4972428;28;20298;-52
2022/05/29 08:10:58;;;;;;;7.70;2.63;;;;;;;;;;4972294;28;20230;-52
2022/05/29 08:13:24;;;;;;;6.07;2.30;;;;;;;;;;4973642;28;20202;-52
2022/05/29 08:15:50;;;;;;;4.50;2.53;;;;;;;;;;4975719;28;20257;-53
2022/05/29 08:18:17;;;;;;;4.50;2.27;;;;;;;;;;4975730;28;20607;-51
2022/05/29 08:20:43;;;;;;;7.13;2.90;;;;;;;;;;4975835;28;20234;-51
2022/05/29 08:23:10;;;;;;;4.30;2.00;;;;;;;;;;4975469;28;20235;-51
2022/05/29 08:31:05;;;;;;;3.53;2.10;;;;;;;;;;4975486;28;20202;-52
2022/05/29 08:33:34;;;;;;;4.10;1.77;;;;;;;;;;4975507;28;20207;-51
2022/05/29 08:36:01;;;;;;;6.00;2.10;;;;;;;;;;4975570;28;20681;-52
2022/05/29 08:38:27;;;;;;;5.23;2.17;;;;;;;;;;4975198;28;20209;-52
2022/05/29 08:40:54;;;;;;;3.77;1.80;;;;;;;;;;4975313;28;20199;-52
2022/05/29 08:43:25;;;;;;;6.67;2.17;;;;;;;;;;4975295;28;20302;-53
2022/05/29 08:45:51;;;;;;;5.43;2.17;;;;;;;;;;4975150;28;20209;-52
2022/05/29 08:48:19;;;;;;;5.60;1.97;;;;;;;;;;4974982;28;20285;-52
2022/05/29 08:50:51;;;;;;;5.13;2.00;;;;;;;;;;4975212;28;20205;-53
2022/05/29 08:53:22;;;;;;;3.53;1.87;;;;;;;;;;4975075;28;20302;-53
2022/05/29 08:55:51;;;;;;;2.97;1.80;;;;;;;;;;4975021;28;20214;-53
2022/05/29 08:58:24;;;;;;;5.10;1.80;;;;;;;;;;4974817;28;20261;-53
2022/05/29 09:00:54;;;;;;;5.03;1.87;;;;;;;;;;4974835;28;20234;-52
2022/05/29 09:03:26;;;;;;;5.67;2.27;;;;;;;;;;4974677;28;20285;-53
2022/05/29 09:05:56;;;;;;;5.00;2.20;;;;;;;;;;4974806;28;20199;-53
2022/05/29 09:08:24;;;;;;;3.43;1.77;;;;;;;;;;4974729;28;20357;-52
2022/05/29 09:10:53;;;;;;;5.47;2.20;;;;;;;;;;4974631;28;20202;-53
2022/05/29 09:13:22;;;;;;;3.23;1.60;;;;;;;;;;4974521;28;20205;-52
2022/05/29 09:15:51;;;;;;;4.80;1.83;;;;;;;;;;4974692;28;20206;-52
2022/05/29 09:18:19;;;;;;;5.43;1.83;;;;;;;;;;4974568;28;20199;-53
2022/05/29 09:20:47;;;;;;;5.67;1.63;;;;;;;;;;4974590;28;20217;-51
2022/05/29 09:23:17;;;;;;;4.27;1.90;;;;;;;;;;4974246;28;20199;-53
2022/05/29 09:25:44;;;;;;;4.40;1.50;;;;;;;;;;4974139;28;20781;-53
2022/05/29 09:28:11;;;;;;;3.53;1.60;;;;;;;;;;4973944;28;20258;-52
2022/05/29 09:30:38;;;;;;;4.87;1.53;;;;;;;;;;4974166;28;20211;-51
2022/05/29 09:33:06;;;;;;;5.57;2.17;;;;;;;;;;4974504;28;20195;-52
2022/05/29 09:35:34;;;;;;;4.33;2.00;;;;;;;;;;4974187;28;20199;-52
2022/05/29 09:38:05;;;;;;;4.93;1.80;;;;;;;;;;4974212;28;20199;-52
2022/05/29 09:40:36;;;;;;;7.43;2.40;;;;;;;;;;4974253;28;20203;-52
2022/05/29 09:43:15;;;;;;;4.87;1.90;;;;;;;;;;4974252;28;20266;-52
2022/05/29 09:45:41;;;;;;;7.93;2.13;;;;;;;;;;4973822;28;20724;-52
2022/05/29 09:51:09;;;;;;;4.77;2.40;;;;;;;;;;4973953;28;20675;-51
2022/05/29 09:53:42;;;;;;;5.00;2.30;;;;;;;;;;4973920;28;20203;-51
2022/05/29 09:56:11;;;;;;;6.07;2.53;;;;;;;;;;4973820;28;20448;-52
2022/05/29 09:58:39;;;;;;;7.33;2.60;;;;;;;;;;4973582;28;20206;-53
2022/05/29 10:01:06;;;;;;;6.07;2.43;;;;;;;;;;4973674;28;20202;-52
2022/05/29 10:03:38;;;;;;;8.57;3.23;;;;;;;;;;4973724;28;20203;-53
2022/05/29 10:06:10;;;;;;;8.27;2.67;;;;;;;;;;4973739;28;20202;-53
2022/05/29 10:08:36;;;;;;;4.67;2.30;;;;;;;;;;4973444;28;20231;-53
2022/05/29 10:11:14;;;;;;;3.23;1.90;;;;;;;;;;4973638;28;20653;-52
2022/05/29 10:13:40;;;;;;;6.53;1.93;;;;;;;;;;4973446;28;20527;-53
2022/05/29 10:16:07;;;;;;;3.53;1.70;;;;;;;;;;4973447;28;20195;-51
2022/05/29 10:18:35;;;;;;;4.97;1.97;;;;;;;;;;4973488;28;20192;-53
2022/05/29 10:21:09;;;;;;;5.23;2.00;;;;;;;;;;4973564;28;20206;-51
2022/05/29 10:23:37;;;;;;;4.90;2.00;;;;;;;;;;4973300;28;20206;-52
2022/05/29 10:26:07;;;;;;;3.97;2.20;;;;;;;;;;4973409;28;20219;-52
2022/05/29 10:28:37;;;;;;;4.97;1.93;;;;;;;;;;4972967;28;20342;-53
2022/05/29 10:31:04;;;;;;;4.27;2.03;;;;;;;;;;4973338;28;20251;-52
2022/05/29 10:33:31;;;;;;;2.83;1.60;;;;;;;;;;4973164;28;20546;-52
2022/05/29 10:35:59;;;;;;;2.80;1.43;;;;;;;;;;4972760;28;20290;-52
2022/05/29 10:38:26;;;;;;;4.63;1.90;;;;;;;;;;4972914;28;20257;-53
2022/05/29 10:40:54;;;;;;;3.07;1.80;;;;;;;;;;4973073;28;20220;-52
2022/05/29 10:43:34;;;;;;;1.80;1.40;;;;;;;;;;4972955;28;20233;-53
2022/05/29 10:46:05;;;;;;;3.83;1.80;;;;;;;;;;4973548;28;20559;-53
2022/05/29 10:48:37;;;;;;;2.80;1.60;;;;;;;;;;4973329;28;20235;-52
2022/05/29 10:51:08;;;;;;;3.20;1.70;;;;;;;;;;4973447;28;20237;-52
2022/05/29 10:53:40;;;;;;;7.30;2.13;;;;;;;;;;4973197;28;20201;-52
2022/05/29 10:56:10;;;;;;;5.80;1.40;;;;;;;;;;4972964;28;20579;-52
2022/05/29 10:58:46;;;;;;;1.87;1.30;;;;;;;;;;4973140;28;20183;-52
2022/05/29 11:04:14;;;;;;;4.67;1.70;;;;;;;;;;4973066;28;20217;-52
2022/05/29 11:06:51;;;;;;;3.77;1.57;;;;;;;;;;4973030;28;20209;-50
2022/05/29 11:09:25;;;;;;;1.93;1.40;;;;;;;;;;4973301;28;20200;-50
2022/05/29 11:11:57;;;;;;;4.17;1.70;;;;;;;;;;4972604;28;20195;-49
2022/05/29 11:14:43;;;;;;;4.77;1.70;;;;;;;;;;4972844;28;20297;-49
2022/05/29 11:17:15;;;;;;;3.30;1.33;;;;;;;;;;4966638;28;20202;-49
2022/05/29 11:20:03;;;;;;;2.67;1.50;;;;;;;;;;4972882;28;20325;-49
2022/05/29 11:22:33;;;;;;;3.37;1.40;;;;;;;;;;4972896;28;20250;-49
2022/05/29 11:25:06;;;;;;;4.83;2.00;;;;;;;;;;4972789;28;20218;-50
2022/05/29 11:27:46;;;;;;;2.60;1.50;;;;;;;;;;4972283;28;20739;-49
2022/05/29 11:30:16;;;;;;;4.20;1.77;;;;;;;;;;4972402;28;20214;-50
2022/05/29 11:32:52;;;;;;;2.97;1.30;;;;;;;;;;4972323;28;20258;-49
2022/05/29 11:35:27;;;;;;;3.13;1.63;;;;;;;;;;4972443;28;20202;-49
2022/05/29 11:38:04;;;;;;;2.10;1.37;;;;;;;;;;4972427;28;20198;-49
2022/05/29 11:40:32;;;;;;;4.50;1.80;;;;;;;;;;4972382;28;20207;-49
2022/05/29 11:43:01;;;;;;;2.87;1.30;;;;;;;;;;4972254;28;20217;-47
2022/05/29 11:51:18;;;;;;;3.57;1.70;;;;;;;;;;4976322;28;20206;-50
2022/05/29 11:53:47;;;;;;;5.13;1.60;;;;;;;;;;4976211;28;20206;-49
2022/05/29 11:56:15;;;;;;;2.30;1.53;;;;;;;;;;4976148;28;20210;-49
2022/05/29 11:58:43;;;;;;;1.93;1.20;;;;;;;;;;4975946;28;20600;-49
2022/05/29 12:01:11;;;;;;;1.93;1.40;;;;;;;;;;4975958;28;20207;-49
2022/05/29 12:03:44;;;;;;;2.13;1.33;;;;;;;;;;4975854;28;20257;-49
2022/05/29 12:06:13;;;;;;;2.17;1.00;;;;;;;;;;4975879;28;20673;-49
2022/05/29 12:08:44;;;;;;;2.80;1.40;;;;;;;;;;4975576;28;20226;-49
2022/05/29 12:11:14;;;;;;;2.37;1.17;;;;;;;;;;4975925;28;20238;-50
2022/05/29 12:13:57;;;;;;;3.00;1.40;;;;;;;;;;4975684;28;20207;-49
2022/05/29 12:16:27;;;;;;;1.03;0.90;;;;;;;;;;4975675;28;20290;-49
2022/05/29 12:18:55;;;;;;;2.33;1.20;;;;;;;;;;4975579;28;20589;-50
2022/05/29 12:21:27;;;;;;;4.03;1.37;;;;;;;;;;4975475;28;20211;-49
2022/05/29 12:23:53;;;;;;;2.30;1.37;;;;;;;;;;4975663;28;20202;-49
2022/05/29 12:26:21;;;;;;;1.40;1.20;;;;;;;;;;4975694;28;20265;-49
2022/05/29 12:28:50;;;;;;;3.03;1.30;;;;;;;;;;4975236;28;20594;-49
2022/05/29 12:31:19;;;;;;;3.40;1.50;;;;;;;;;;4975461;28;20209;-50
2022/05/29 12:33:46;;;;;;;2.70;1.10;;;;;;;;;;4975429;28;20207;-50
2022/05/29 12:36:19;;;;;;;2.93;1.43;;;;;;;;;;4975375;28;20224;-48
2022/05/29 12:38:54;;;;;;;1.87;1.27;;;;;;;;;;4975460;28;20203;-49
2022/05/29 12:41:38;;;;;;;3.30;1.23;;;;;;;;;;4975272;28;20653;-49
2022/05/29 12:44:25;;;;;;;2.27;1.30;;;;;;;;;;4975288;28;20335;-49
2022/05/29 12:47:01;;;;;;;2.03;1.13;;;;;;;;;;4975128;28;20231;-49
2022/05/29 12:49:45;;;;;;;1.20;1.10;;;;;;;;;;4975150;28;20341;-51
2022/05/29 12:52:14;;;;;;;2.00;1.20;;;;;;;;;;4974968;28;20238;-50
2022/05/29 12:54:55;;;;;;;2.17;1.23;;;;;;;;;;4974986;28;20214;-49
2022/05/29 12:57:42;;;;;;;3.57;1.50;;;;;;;;;;4974952;28;20198;-49
2022/05/29 13:00:23;;;;;;;2.50;1.63;;;;;;;;;;4974723;28;20234;-49
2022/05/29 13:03:04;;;;;;;1.57;1.40;;;;;;;;;;4974884;28;20207;-49
2022/05/29 13:05:36;;;;;;;3.43;1.43;;;;;;;;;;4974975;28;20281;-50
2022/05/29 13:08:15;;;;;;;1.30;1.10;;;;;;;;;;4974959;28;20244;-51
2022/05/29 13:10:42;;;;;;;3.00;1.43;;;;;;;;;;4974716;28;20258;-48
2022/05/29 13:13:09;;;;;;;3.60;1.33;;;;;;;;;;4974669;28;20583;-50
2022/05/29 13:15:36;;;;;;;2.30;1.17;;;;;;;;;;4974525;28;20290;-49
2022/05/29 13:18:05;;;;;;;4.73;1.20;;;;;;;;;;4974841;28;20199;-49
2022/05/29 13:20:31;;;;;;;1.20;0.93;;;;;;;;;;4974668;28;20199;-49
2022/05/29 13:22:59;;;;;;;1.43;0.90;;;;;;;;;;4974588;28;20203;-49
2022/05/29 13:25:28;;;;;;;2.17;1.17;;;;;;;;;;4974372;28;20278;-48
2022/05/29 13:27:56;;;;;;;2.00;1.20;;;;;;;;;;4974153;28;20449;-48
2022/05/29 13:30:42;;;;;;;1.50;1.27;;;;;;;;;;4974380;28;20207;-50
2022/05/29 13:33:23;;;;;;;1.33;1.20;;;;;;;;;;4974393;28;20294;-50
2022/05/29 13:35:49;;;;;;;1.83;1.20;;;;;;;;;;4974106;28;20203;-49
2022/05/29 13:38:30;;;;;;;1.77;1.30;;;;;;;;;;4974364;28;20685;-48
2022/05/29 13:41:04;;;;;;;3.53;1.30;;;;;;;;;;4973955;28;20214;-49
2022/05/29 13:43:39;;;;;;;2.60;1.70;;;;;;;;;;4974177;28;20711;-49
2022/05/29 13:46:07;;;;;;;1.87;1.20;;;;;;;;;;4974144;28;20199;-49
2022/05/29 13:48:33;;;;;;;5.10;1.70;;;;;;;;;;4973920;28;20230;-50
2022/05/29 13:51:02;;;;;;;4.67;1.30;;;;;;;;;;4974051;28;20253;-50
2022/05/29 13:53:32;;;;;;;3.07;1.50;;;;;;;;;;4974012;28;20206;-49
2022/05/29 13:55:58;;;;;;;2.00;1.23;;;;;;;;;;4973886;28;20202;-50
2022/05/29 14:04:06;;;;;;;1.30;1.20;;;;;;;;;;4974023;28;20198;-49
2022/05/29 14:06:34;;;;;;;2.73;1.40;;;;;;;;;;4973776;28;20282;-49
2022/05/29 14:09:03;;;;;;;4.30;1.50;;;;;;;;;;4973661;28;20597;-50
2022/05/29 14:11:42;;;;;;;4.20;1.60;;;;;;;;;;4972915;28;20203;-50
2022/05/29 14:14:23;;;;;;;3.47;1.70;;;;;;;;;;4973626;28;20206;-50
2022/05/29 14:16:52;;;;;;;3.50;1.40;;;;;;;;;;4957242;28;20600;-50
2022/05/29 14:19:29;;;;;;;5.93;1.60;;;;;;;;;;4973773;28;20203;-50
2022/05/29 14:22:10;;;;;;;2.80;1.50;;;;;;;;;;4973515;28;20298;-49
2022/05/29 14:25:00;;;;;;;1.80;1.57;;;;;;;;;;4973287;28;20211;-49
2022/05/29 14:27:38;;;;;;;4.70;1.40;;;;;;;;;;4953722;28;20242;-49
2022/05/29 14:30:07;;;;;;;2.13;1.33;;;;;;;;;;4973484;28;20199;-49
2022/05/29 14:32:48;;;;;;;6.50;1.50;;;;;;;;;;4973329;28;20273;-50
2022/05/29 14:35:21;;;;;;;1.97;1.20;;;;;;;;;;4973329;28;20206;-50
2022/05/29 14:37:52;;;;;;;2.43;1.30;;;;;;;;;;4973255;28;20203;-49
2022/05/29 14:40:24;;;;;;;5.00;1.50;;;;;;;;;;4973248;28;20296;-49
2022/05/29 14:42:53;;;;;;;1.77;1.17;;;;;;;;;;4972913;28;20258;-52
2022/05/29 14:45:21;;;;;;;5.43;1.50;;;;;;;;;;4973183;28;20273;-51
2022/05/29 14:47:52;;;;;;;3.17;1.30;;;;;;;;;;4973046;28;20234;-49
2022/05/29 14:50:20;;;;;;;4.27;1.53;;;;;;;;;;4973070;28;20203;-51
2022/05/29 14:52:55;;;;;;;3.60;1.30;;;;;;;;;;4972858;28;20218;-50
2022/05/29 14:55:23;;;;;;;3.47;1.33;;;;;;;;;;4972919;28;20213;-50
2022/05/29 14:57:51;;;;;;;3.40;1.40;;;;;;;;;;4972691;28;20203;-51
2022/05/29 15:00:21;;;;;;;2.70;1.60;;;;;;;;;;4973015;28;20198;-49
2022/05/29 15:02:47;;;;;;;2.33;1.30;;;;;;;;;;4972911;28;20203;-50
2022/05/29 15:05:17;;;;;;;2.70;1.20;;;;;;;;;;4972765;28;20238;-50
2022/05/29 15:10:34;;;;;;;3.57;1.20;;;;;;;;;;4972609;28;20672;-49
2022/05/29 15:13:02;;;;;;;1.87;1.20;;;;;;;;;;4972658;28;20195;-50
2022/05/29 15:15:31;;;;;;;1.93;1.17;;;;;;;;;;4972685;28;20330;-49
2022/05/29 15:18:07;;;;;;;4.83;1.60;;;;;;;;;;4972619;28;20278;-49
2022/05/29 15:26:13;;;;;;;2.40;1.40;;;;;;;;;;4979002;28;20225;-49
2022/05/29 15:28:42;;;;;;;2.63;1.50;;;;;;;;;;4978728;28;20242;-50
2022/05/29 15:31:09;;;;;;;4.47;1.80;;;;;;;;;;4979204;28;20202;-50
2022/05/29 15:33:51;;;;;;;1.67;1.40;;;;;;;;;;4978930;28;20206;-50
2022/05/29 15:36:21;;;;;;;4.37;1.37;;;;;;;;;;4979117;28;20590;-50
2022/05/29 15:38:53;;;;;;;3.10;1.50;;;;;;;;;;4978981;28;20194;-49